createdAt,value
2018-10-07T00:00:09.064Z,11.28
2018-10-07T00:02:36.266Z,11.30
2018-10-07T00:05:03.604Z,11.45
2018-10-07T00:07:30.863Z,10.30
2018-10-07T00:09:58.168Z,10.78
2018-10-07T00:12:25.499Z,9.98
2018-10-07T00:14:52.763Z,10.45
2018-10-07T00:17:20.228Z,10.60
2018-10-07T00:19:47.796Z,11.30
2018-10-07T00:22:15.043Z,9.75
2018-10-07T00:24:42.345Z,10.32
2018-10-07T00:27:09.604Z,9.68
2018-10-07T00:29:36.992Z,9.93
2018-10-07T00:32:09.971Z,9.90
2018-10-07T00:34:37.283Z,10.45
2018-10-07T00:37:04.651Z,10.55
2018-10-07T00:39:31.889Z,10.65
2018-10-07T00:41:59.180Z,10.45
2018-10-07T00:44:26.440Z,10.90
2018-10-07T00:46:54.077Z,11.55
2018-10-07T00:49:21.305Z,12.15
2018-10-07T00:51:48.513Z,12.60
2018-10-07T00:54:15.800Z,11.53
2018-10-07T00:56:43.059Z,11.90
2018-10-07T00:59:10.307Z,11.70
2018-10-07T01:01:37.583Z,12.00
2018-10-07T01:04:04.820Z,10.85
2018-10-07T01:06:32.111Z,11.03
2018-10-07T01:08:59.468Z,11.55
2018-10-07T01:11:26.743Z,11.38
2018-10-07T01:13:53.975Z,11.15
2018-10-07T01:16:21.215Z,11.45
2018-10-07T01:18:48.451Z,12.07
2018-10-07T01:21:15.756Z,11.60
2018-10-07T01:23:43.003Z,11.63
2018-10-07T01:26:10.270Z,10.82
2018-10-07T01:28:37.580Z,11.00
2018-10-07T01:31:04.867Z,10.88
2018-10-07T01:33:32.101Z,10.32
2018-10-07T01:35:59.343Z,10.85
2018-10-07T01:38:26.631Z,10.43
2018-10-07T01:40:53.908Z,10.95
2018-10-07T01:43:21.247Z,10.40
2018-10-07T01:45:48.508Z,10.50
2018-10-07T01:48:15.825Z,11.08
2018-10-07T01:50:43.086Z,10.82
2018-10-07T01:53:10.360Z,10.58
2018-10-07T01:55:37.631Z,10.70
2018-10-07T01:58:04.909Z,10.63
2018-10-07T02:00:32.141Z,10.77
2018-10-07T02:02:59.437Z,10.15
2018-10-07T02:05:26.771Z,10.72
2018-10-07T02:07:54.125Z,10.20
2018-10-07T02:10:21.359Z,11.38
2018-10-07T02:12:48.697Z,10.48
2018-10-07T02:15:15.904Z,10.65
2018-10-07T02:17:43.164Z,11.12
2018-10-07T02:20:10.450Z,10.32
2018-10-07T02:22:37.709Z,10.58
2018-10-07T02:25:04.959Z,10.72
2018-10-07T02:27:32.180Z,10.55
2018-10-07T02:29:59.463Z,10.03
2018-10-07T02:32:26.700Z,10.05
2018-10-07T02:34:53.940Z,9.70
2018-10-07T02:37:21.212Z,10.58
2018-10-07T02:39:48.531Z,10.03
2018-10-07T02:42:15.777Z,10.08
2018-10-07T02:44:43.046Z,10.50
2018-10-07T02:47:10.328Z,11.30
2018-10-07T02:49:37.608Z,12.35
2018-10-07T02:52:04.894Z,11.70
2018-10-07T02:54:32.281Z,11.53
2018-10-07T02:56:59.588Z,11.75
2018-10-07T02:59:26.891Z,11.03
2018-10-07T03:01:54.192Z,11.53
2018-10-07T03:04:21.419Z,11.45
2018-10-07T03:06:48.711Z,11.70
2018-10-07T03:09:15.944Z,11.45
2018-10-07T03:11:43.301Z,10.30
2018-10-07T03:14:10.553Z,10.43
2018-10-07T03:16:37.806Z,10.80
2018-10-07T03:19:05.034Z,10.93
2018-10-07T03:21:32.577Z,10.10
2018-10-07T03:23:59.879Z,10.32
2018-10-07T03:26:27.128Z,10.35
2018-10-07T03:28:54.368Z,10.35
2018-10-07T03:31:21.584Z,10.53
2018-10-07T03:33:48.804Z,9.90
2018-10-07T03:36:16.060Z,10.65
2018-10-07T03:38:43.276Z,10.08
2018-10-07T03:41:10.570Z,10.70
2018-10-07T03:43:37.814Z,10.58
2018-10-07T03:46:05.081Z,11.00
2018-10-07T03:48:32.316Z,10.20
2018-10-07T03:50:59.580Z,10.45
2018-10-07T03:53:26.808Z,9.98
2018-10-07T03:55:54.046Z,9.80
2018-10-07T03:58:21.299Z,9.90
2018-10-07T04:00:48.543Z,11.25
2018-10-07T04:03:15.808Z,11.95
2018-10-07T04:05:43.135Z,11.38
2018-10-07T04:08:10.408Z,11.22
2018-10-07T04:10:37.689Z,11.73
2018-10-07T04:13:05.219Z,11.88
2018-10-07T04:15:32.496Z,11.88
2018-10-07T04:17:59.784Z,11.40
2018-10-07T04:20:27.101Z,11.55
2018-10-07T04:22:54.425Z,12.23
2018-10-07T04:25:21.751Z,12.85
2018-10-07T04:27:49.059Z,13.85
2018-10-07T04:30:16.385Z,13.85
2018-10-07T04:32:43.692Z,13.55
2018-10-07T04:35:10.996Z,13.45
2018-10-07T04:37:38.387Z,13.38
2018-10-07T04:40:05.735Z,13.20
2018-10-07T04:42:33.151Z,13.03
2018-10-07T04:45:00.450Z,12.90
2018-10-07T04:47:27.819Z,12.80
2018-10-07T04:49:55.165Z,12.80
2018-10-07T04:52:22.444Z,13.00
2018-10-07T04:54:49.770Z,12.98
2018-10-07T04:57:17.156Z,11.00
2018-10-07T04:59:44.790Z,10.60
2018-10-07T05:02:12.136Z,11.05
2018-10-07T05:04:39.474Z,10.35
2018-10-07T05:07:06.794Z,11.03
2018-10-07T05:09:34.114Z,11.18
2018-10-07T05:12:04.014Z,11.28
2018-10-07T05:14:31.393Z,11.65
2018-10-07T05:16:58.735Z,11.50
2018-10-07T05:19:26.037Z,14.03
2018-10-07T05:21:53.380Z,12.18
2018-10-07T05:24:20.726Z,11.38
2018-10-07T05:26:48.049Z,11.48
2018-10-07T05:29:15.354Z,11.93
2018-10-07T05:31:42.696Z,11.08
2018-10-07T05:34:09.991Z,11.43
2018-10-07T05:36:37.372Z,11.15
2018-10-07T05:39:07.215Z,11.75
2018-10-07T05:41:34.576Z,10.98
2018-10-07T05:44:02.103Z,11.12
2018-10-07T05:46:29.467Z,11.30
2018-10-07T05:48:56.726Z,10.80
2018-10-07T05:51:24.012Z,9.85
2018-10-07T05:53:51.287Z,10.95
2018-10-07T05:56:18.628Z,10.08
2018-10-07T05:58:46.317Z,9.93
2018-10-07T06:01:14.997Z,10.45
2018-10-07T06:04:48.801Z,9.63
2018-10-07T06:07:16.191Z,9.80
2018-10-07T06:09:43.518Z,9.55
2018-10-07T06:12:10.812Z,9.95
2018-10-07T06:14:49.790Z,9.93
2018-10-07T06:17:17.223Z,12.45
2018-10-07T06:19:44.620Z,10.35
2018-10-07T06:22:11.959Z,12.37
2018-10-07T06:24:39.386Z,11.38
2018-10-07T06:27:06.793Z,13.25
2018-10-07T06:29:34.098Z,19.45
2018-10-07T06:32:01.495Z,12.25
2018-10-07T06:34:28.834Z,11.57
2018-10-07T06:36:56.402Z,10.90
2018-10-07T06:39:24.165Z,10.65
2018-10-07T06:41:51.860Z,11.68
2018-10-07T06:44:19.373Z,11.25
2018-10-07T06:46:46.978Z,11.15
2018-10-07T06:49:14.453Z,11.40
2018-10-07T06:51:41.861Z,11.05
2018-10-07T06:54:09.487Z,11.15
2018-10-07T06:56:36.777Z,10.72
2018-10-07T06:59:04.206Z,11.22
2018-10-07T07:01:31.671Z,11.75
2018-10-07T07:03:59.002Z,12.07
2018-10-07T07:06:53.705Z,11.63
2018-10-07T07:09:22.232Z,11.15
2018-10-07T07:11:49.661Z,11.57
2018-10-07T07:14:16.957Z,11.83
2018-10-07T07:16:44.298Z,10.98
2018-10-07T07:19:11.618Z,11.08
2018-10-07T07:21:38.916Z,11.00
2018-10-07T07:24:06.296Z,9.78
2018-10-07T07:26:34.037Z,9.85
2018-10-07T07:29:01.329Z,9.85
2018-10-07T07:31:28.697Z,9.43
2018-10-07T07:33:55.981Z,9.63
2018-10-07T07:36:23.249Z,9.83
2018-10-07T07:38:50.550Z,10.48
2018-10-07T07:41:17.821Z,10.20
2018-10-07T07:43:45.137Z,9.80
2018-10-07T07:46:12.585Z,10.38
2018-10-07T07:48:39.913Z,9.28
2018-10-07T07:51:07.254Z,9.53
2018-10-07T07:53:34.962Z,9.70
2018-10-07T07:56:02.238Z,9.95
2018-10-07T07:58:29.535Z,9.20
2018-10-07T08:00:56.789Z,9.43
2018-10-07T08:03:24.050Z,9.25
2018-10-07T08:05:51.358Z,8.95
2018-10-07T08:08:18.737Z,8.95
2018-10-07T08:10:46.025Z,9.38
2018-10-07T08:13:13.342Z,9.58
2018-10-07T08:15:40.643Z,9.50
2018-10-07T08:18:07.945Z,9.53
2018-10-07T08:20:35.261Z,10.03
2018-10-07T08:23:02.677Z,9.70
2018-10-07T08:25:30.010Z,9.58
2018-10-07T08:27:57.330Z,9.65
2018-10-07T08:30:24.696Z,10.55
2018-10-07T08:32:52.076Z,10.30
2018-10-07T08:35:19.545Z,10.63
2018-10-07T08:37:46.819Z,10.32
2018-10-07T08:40:14.179Z,10.63
2018-10-07T08:42:41.620Z,10.45
2018-10-07T08:45:08.976Z,10.00
2018-10-07T08:47:36.306Z,10.48
2018-10-07T08:50:03.669Z,10.30
2018-10-07T08:52:31.013Z,10.75
2018-10-07T08:54:58.360Z,10.32
2018-10-07T08:57:25.690Z,10.30
2018-10-07T08:59:52.995Z,11.08
2018-10-07T09:02:20.379Z,10.03
2018-10-07T09:04:47.769Z,9.53
2018-10-07T09:07:16.017Z,10.00
2018-10-07T09:09:44.105Z,10.50
2018-10-07T09:12:13.629Z,9.70
2018-10-07T09:14:41.280Z,9.55
2018-10-07T09:17:08.621Z,10.25
2018-10-07T09:19:35.945Z,10.40
2018-10-07T09:22:03.282Z,10.60
2018-10-07T09:24:30.638Z,11.57
2018-10-07T09:26:58.008Z,10.95
2018-10-07T09:29:50.885Z,10.80
2018-10-07T09:32:21.572Z,9.63
2018-10-07T09:34:48.920Z,9.73
2018-10-07T09:37:16.265Z,9.43
2018-10-07T09:39:43.664Z,8.88
2018-10-07T09:42:10.927Z,9.00
2018-10-07T09:44:38.295Z,8.25
2018-10-07T09:47:06.272Z,7.87
2018-10-07T09:49:33.610Z,7.53
2018-10-07T09:52:00.980Z,7.00
2018-10-07T09:54:28.310Z,7.35
2018-10-07T09:56:55.646Z,6.78
2018-10-07T09:59:22.980Z,6.58
2018-10-07T10:01:50.349Z,6.35
2018-10-07T10:04:17.714Z,5.40
2018-10-07T10:06:47.454Z,4.90
2018-10-07T10:09:16.029Z,5.00
2018-10-07T10:11:43.407Z,4.90
2018-10-07T10:14:10.836Z,5.50
2018-10-07T10:17:12.135Z,5.30
2018-10-07T10:19:46.143Z,5.50
2018-10-07T10:22:27.794Z,5.10
2018-10-07T10:25:09.478Z,5.62
2018-10-07T10:27:47.366Z,5.70
2018-10-07T10:30:26.092Z,5.90
2018-10-07T10:32:55.282Z,5.45
2018-10-07T10:35:36.121Z,4.90
2018-10-07T10:38:11.371Z,5.72
2018-10-07T10:40:48.188Z,5.80
2018-10-07T10:43:20.921Z,5.58
2018-10-07T10:46:56.614Z,4.45
2018-10-07T10:49:28.430Z,4.67
2018-10-07T10:52:06.158Z,4.45
2018-10-07T10:54:39.878Z,4.30
2018-10-07T10:58:10.773Z,4.20
2018-10-07T11:00:44.122Z,3.87
2018-10-07T11:03:26.076Z,4.35
2018-10-07T11:08:01.150Z,4.00
2018-10-07T11:10:36.232Z,4.12
2018-10-07T11:13:41.594Z,4.00
2018-10-07T11:16:14.754Z,3.50
2018-10-07T11:18:49.590Z,3.70
2018-10-07T11:21:38.072Z,3.25
2018-10-07T11:24:13.657Z,3.25
2018-10-07T11:26:48.446Z,2.77
2018-10-07T11:29:21.517Z,2.77
2018-10-07T11:31:59.233Z,2.70
2018-10-07T11:34:32.453Z,2.92
2018-10-07T11:37:07.569Z,2.90
2018-10-07T11:40:45.454Z,2.75
2018-10-07T11:43:13.989Z,3.30
2018-10-07T11:45:43.733Z,3.50
2018-10-07T11:49:17.448Z,4.65
2018-10-07T11:51:52.578Z,4.92
2018-10-07T11:54:33.981Z,6.08
2018-10-07T11:57:01.333Z,5.85
2018-10-07T11:59:28.610Z,6.55
2018-10-07T12:01:55.880Z,6.30
2018-10-07T12:04:23.255Z,5.95
2018-10-07T12:06:50.597Z,5.35
2018-10-07T12:09:17.911Z,5.12
2018-10-07T12:11:45.206Z,4.85
2018-10-07T12:14:14.609Z,5.15
2018-10-07T12:16:41.890Z,4.37
2018-10-07T12:19:09.170Z,4.95
2018-10-07T12:21:36.469Z,4.20
2018-10-07T12:24:03.742Z,3.77
2018-10-07T12:26:31.097Z,3.70
2018-10-07T12:28:58.444Z,3.70
2018-10-07T12:31:25.727Z,3.50
2018-10-07T12:33:54.021Z,3.80
2018-10-07T12:36:21.678Z,3.70
2018-10-07T12:38:48.936Z,3.60
2018-10-07T12:41:16.231Z,3.40
2018-10-07T12:43:43.545Z,3.05
2018-10-07T12:46:10.849Z,3.20
2018-10-07T12:48:38.169Z,3.08
2018-10-07T12:51:06.852Z,2.70
2018-10-07T12:53:34.121Z,2.77
2018-10-07T12:56:01.439Z,2.85
2018-10-07T12:58:28.752Z,2.87
2018-10-07T13:00:56.036Z,2.60
2018-10-07T13:03:23.356Z,2.37
2018-10-07T13:05:50.681Z,2.67
2018-10-07T13:08:17.989Z,2.60
2018-10-07T13:10:45.285Z,2.50
2018-10-07T13:13:12.927Z,2.35
2018-10-07T13:15:40.761Z,2.22
2018-10-07T13:18:08.062Z,2.30
2018-10-07T13:20:35.359Z,2.25
2018-10-07T13:23:02.676Z,2.30
2018-10-07T13:25:29.994Z,2.10
2018-10-07T13:27:57.281Z,2.30
2018-10-07T13:30:24.581Z,2.30
2018-10-07T13:32:51.906Z,2.60
2018-10-07T13:35:19.204Z,2.70
2018-10-07T13:37:46.614Z,2.60
2018-10-07T13:40:13.941Z,2.50
2018-10-07T13:42:43.228Z,2.50
2018-10-07T13:45:10.641Z,2.40
2018-10-07T13:47:37.953Z,3.10
2018-10-07T13:50:05.425Z,2.80
2018-10-07T13:52:32.693Z,2.50
2018-10-07T13:55:00.004Z,2.50
2018-10-07T13:57:27.333Z,2.50
2018-10-07T13:59:54.626Z,2.45
2018-10-07T14:02:21.924Z,2.50
2018-10-07T14:04:51.384Z,2.30
2018-10-07T14:07:18.669Z,2.30
2018-10-07T14:09:45.961Z,2.33
2018-10-07T14:12:13.212Z,2.20
2018-10-07T14:14:40.481Z,2.00
2018-10-07T14:17:07.761Z,2.00
2018-10-07T14:19:35.094Z,2.10
2018-10-07T14:22:02.369Z,2.10
2018-10-07T14:24:29.686Z,2.15
2018-10-07T14:26:56.953Z,2.20
2018-10-07T14:29:24.254Z,2.33
2018-10-07T14:31:51.524Z,3.37
2018-10-07T14:34:18.813Z,4.12
2018-10-07T14:36:46.164Z,4.20
2018-10-07T14:39:13.730Z,4.08
2018-10-07T14:41:40.896Z,4.90
2018-10-07T14:44:08.530Z,6.30
2018-10-07T14:46:35.897Z,6.28
2018-10-07T14:49:03.208Z,6.60
2018-10-07T14:51:46.029Z,7.08
2018-10-07T14:54:13.906Z,6.70
2018-10-07T14:56:41.165Z,6.95
2018-10-07T14:59:08.459Z,6.90
2018-10-07T15:01:35.735Z,6.22
2018-10-07T15:04:03.030Z,5.67
2018-10-07T15:06:30.306Z,5.65
2018-10-07T15:08:57.554Z,5.78
2018-10-07T15:11:24.817Z,5.25
2018-10-07T15:13:52.127Z,5.08
2018-10-07T15:16:19.439Z,6.25
2018-10-07T15:18:46.777Z,6.17
2018-10-07T15:21:14.074Z,5.90
2018-10-07T15:23:41.414Z,6.20
2018-10-07T15:26:08.665Z,6.08
2018-10-07T15:28:36.319Z,5.78
2018-10-07T15:31:03.958Z,6.22
2018-10-07T15:33:31.230Z,6.20
2018-10-07T15:35:58.553Z,6.00
2018-10-07T15:38:25.882Z,6.80
2018-10-07T15:40:53.165Z,6.03
2018-10-07T15:43:20.517Z,7.10
2018-10-07T15:45:47.814Z,6.33
2018-10-07T15:48:15.234Z,6.90
2018-10-07T15:50:42.560Z,6.65
2018-10-07T15:53:09.874Z,7.10
2018-10-07T15:55:37.299Z,7.50
2018-10-07T15:58:04.670Z,7.28
2018-10-07T16:00:31.977Z,7.42
2018-10-07T16:02:59.269Z,7.12
2018-10-07T16:05:26.578Z,6.90
2018-10-07T16:07:53.896Z,6.92
2018-10-07T16:10:21.247Z,6.80
2018-10-07T16:12:48.548Z,6.58
2018-10-07T16:15:15.851Z,6.95
2018-10-07T16:17:43.187Z,7.65
2018-10-07T16:20:10.501Z,8.38
2018-10-07T16:22:37.803Z,8.00
2018-10-07T16:25:05.199Z,8.00
2018-10-07T16:27:32.546Z,8.83
2018-10-07T16:29:59.866Z,9.00
2018-10-07T16:32:27.514Z,9.65
2018-10-07T16:34:54.830Z,9.40
2018-10-07T16:37:22.305Z,9.20
2018-10-07T16:39:50.033Z,9.50
2018-10-07T16:42:17.426Z,9.65
2018-10-07T16:44:44.717Z,9.85
2018-10-07T16:47:11.985Z,9.48
2018-10-07T16:49:39.361Z,13.50
2018-10-07T16:52:16.985Z,128.60
2018-10-07T16:54:44.809Z,49.75
2018-10-07T16:57:12.569Z,53.58
2018-10-07T16:59:40.226Z,22.95
2018-10-07T17:02:07.867Z,12.82
2018-10-07T17:04:35.654Z,14.38
2018-10-07T17:07:03.447Z,15.80
2018-10-07T17:09:31.102Z,16.05
2018-10-07T17:11:58.769Z,19.37
2018-10-07T17:14:26.413Z,18.82
2018-10-07T17:16:54.105Z,17.37
2018-10-07T17:19:21.835Z,17.60
2018-10-07T17:21:49.623Z,19.07
2018-10-07T17:24:17.425Z,19.48
2018-10-07T17:26:45.196Z,18.07
2018-10-07T17:29:12.972Z,19.37
2018-10-07T17:31:40.752Z,19.40
2018-10-07T17:34:08.875Z,20.12
2018-10-07T17:36:37.257Z,20.92
2018-10-07T17:39:07.221Z,22.05
2018-10-07T17:41:35.273Z,22.62
2018-10-07T17:44:03.201Z,24.87
2018-10-07T17:46:31.077Z,23.87
2018-10-07T17:48:59.157Z,22.25
2018-10-07T17:51:27.052Z,23.15
2018-10-07T17:53:54.776Z,25.85
2018-10-07T17:56:22.584Z,25.95
2018-10-07T17:58:49.922Z,25.68
2018-10-07T18:01:17.156Z,25.37
2018-10-07T18:03:45.684Z,24.82
2018-10-07T18:06:12.950Z,24.35
2018-10-07T18:08:40.181Z,24.27
2018-10-07T18:11:07.584Z,24.37
2018-10-07T18:13:34.899Z,24.00
2018-10-07T18:16:02.276Z,23.92
2018-10-07T18:18:29.512Z,26.48
2018-10-07T18:20:56.779Z,25.40
2018-10-07T18:23:24.016Z,25.40
2018-10-07T18:25:51.317Z,26.12
2018-10-07T18:28:18.582Z,26.00
2018-10-07T18:30:45.883Z,26.55
2018-10-07T18:33:13.172Z,26.65
2018-10-07T18:35:40.555Z,27.60
2018-10-07T18:38:07.882Z,26.55
2018-10-07T18:40:35.233Z,26.90
2018-10-07T18:43:02.584Z,26.70
2018-10-07T18:45:29.808Z,26.62
2018-10-07T18:47:57.182Z,26.40
2018-10-07T18:50:24.448Z,26.17
2018-10-07T18:52:51.727Z,26.75
2018-10-07T18:55:18.983Z,26.55
2018-10-07T18:57:46.329Z,26.12
2018-10-07T19:00:13.572Z,25.60
2018-10-07T19:02:40.988Z,26.27
2018-10-07T19:05:08.326Z,25.55
2018-10-07T19:07:35.696Z,26.85
2018-10-07T19:10:03.232Z,26.82
2018-10-07T19:12:30.574Z,25.57
2018-10-07T19:14:57.823Z,26.02
2018-10-07T19:17:25.240Z,26.15
2018-10-07T19:19:52.636Z,25.80
2018-10-07T19:22:19.938Z,27.40
2018-10-07T19:24:47.302Z,25.57
2018-10-07T19:27:14.590Z,24.80
2018-10-07T19:29:41.851Z,25.55
2018-10-07T19:32:09.158Z,23.60
2018-10-07T19:34:36.389Z,23.67
2018-10-07T19:37:03.788Z,23.20
2018-10-07T19:39:30.959Z,24.25
2018-10-07T19:41:58.284Z,25.02
2018-10-07T19:44:25.587Z,25.10
2018-10-07T19:46:52.950Z,24.25
2018-10-07T19:49:20.240Z,24.05
2018-10-07T19:51:47.618Z,24.90
2018-10-07T19:54:14.868Z,25.82
2018-10-07T19:56:42.122Z,25.15
2018-10-07T19:59:09.480Z,24.92
2018-10-07T20:01:36.816Z,25.65
2018-10-07T20:04:04.121Z,25.27
2018-10-07T20:06:31.484Z,23.85
2018-10-07T20:08:58.875Z,24.55
2018-10-07T20:11:26.206Z,24.60
2018-10-07T20:13:53.490Z,23.67
2018-10-07T20:16:20.789Z,24.52
2018-10-07T20:18:48.108Z,24.43
2018-10-07T20:21:15.430Z,24.37
2018-10-07T20:23:42.718Z,23.22
2018-10-07T20:26:10.030Z,22.93
2018-10-07T20:28:37.335Z,23.42
2018-10-07T20:31:04.611Z,23.90
2018-10-07T20:33:31.893Z,23.30
2018-10-07T20:35:59.202Z,24.75
2018-10-07T20:38:26.511Z,24.50
2018-10-07T20:40:53.886Z,24.80
2018-10-07T20:43:21.043Z,24.57
2018-10-07T20:45:48.297Z,24.20
2018-10-07T20:48:15.634Z,24.35
2018-10-07T20:50:43.048Z,22.58
2018-10-07T20:53:10.320Z,23.30
2018-10-07T20:55:37.585Z,23.32
2018-10-07T20:58:04.944Z,23.25
2018-10-07T21:00:33.038Z,23.65
2018-10-07T21:03:00.286Z,22.30
2018-10-07T21:05:27.562Z,23.25
2018-10-07T21:07:54.880Z,22.48
2018-10-07T21:10:22.312Z,22.82
2018-10-07T21:12:49.640Z,23.22
2018-10-07T21:15:16.922Z,22.75
2018-10-07T21:17:44.360Z,22.22
2018-10-07T21:20:11.693Z,22.15
2018-10-07T21:22:39.021Z,22.30
2018-10-07T21:25:06.312Z,23.95
2018-10-07T21:27:33.588Z,22.37
2018-10-07T21:30:00.941Z,23.45
2018-10-07T21:32:28.242Z,23.83
2018-10-07T21:34:55.570Z,23.32
2018-10-07T21:37:22.893Z,23.00
2018-10-07T21:39:50.143Z,22.87
2018-10-07T21:42:18.427Z,22.40
2018-10-07T21:44:45.688Z,23.75
2018-10-07T21:47:13.039Z,22.95
2018-10-07T21:49:40.311Z,22.98
2018-10-07T21:52:07.585Z,22.67
2018-10-07T21:54:34.816Z,23.90
2018-10-07T21:57:02.075Z,22.35
2018-10-07T21:59:29.324Z,24.57
2018-10-07T22:01:56.597Z,24.82
2018-10-07T22:04:23.947Z,25.65
2018-10-07T22:06:51.319Z,25.97
2018-10-07T22:09:18.583Z,25.75
2018-10-07T22:11:45.828Z,25.40
2018-10-07T22:14:13.116Z,24.80
2018-10-07T22:16:40.407Z,24.45
2018-10-07T22:19:07.732Z,24.92
2018-10-07T22:21:35.312Z,24.05
2018-10-07T22:24:02.579Z,23.12
2018-10-07T22:26:29.921Z,23.05
2018-10-07T22:28:57.176Z,23.80
2018-10-07T22:31:24.424Z,23.80
2018-10-07T22:33:51.674Z,23.65
2018-10-07T22:36:18.912Z,25.50
2018-10-07T22:38:46.147Z,23.52
2018-10-07T22:41:13.407Z,22.65
2018-10-07T22:43:40.645Z,24.67
2018-10-07T22:46:07.908Z,23.57
2018-10-07T22:48:35.188Z,22.87
2018-10-07T22:51:02.460Z,22.80
2018-10-07T22:53:29.762Z,23.98
2018-10-07T22:55:57.185Z,24.07
2018-10-07T22:58:24.989Z,23.67
2018-10-07T23:00:52.378Z,23.20
2018-10-07T23:03:19.680Z,22.82
2018-10-07T23:05:46.977Z,23.57
2018-10-07T23:08:14.295Z,23.75
2018-10-07T23:10:41.557Z,24.00
2018-10-07T23:13:08.848Z,23.02
2018-10-07T23:15:36.121Z,21.87
2018-10-07T23:18:03.433Z,21.97
2018-10-07T23:20:30.729Z,22.17
2018-10-07T23:22:58.029Z,23.30
2018-10-07T23:25:25.338Z,22.87
2018-10-07T23:27:52.623Z,22.67
2018-10-07T23:30:20.016Z,22.82
2018-10-07T23:32:47.375Z,22.35
2018-10-07T23:35:14.685Z,23.30
2018-10-07T23:37:41.986Z,22.37
2018-10-07T23:40:10.025Z,23.47
2018-10-07T23:42:37.702Z,22.13
2018-10-07T23:45:05.074Z,21.80
2018-10-07T23:47:32.475Z,22.77
2018-10-07T23:49:59.773Z,22.57
2018-10-07T23:52:27.124Z,21.67
2018-10-07T23:54:54.438Z,20.87
2018-10-07T23:57:21.700Z,21.12
2018-10-07T23:59:49.212Z,20.53
